Terminal Aerodrome Forecast
Issued by NWS

Home | Current Version | Previous Version | Text Only | Print | Product List | Glossary On
Versions: 1 2 3 4 5 6 7 8 9 10 11 12 13 14 15 16 17 18 19 20 21 22 23 24 25 26 27 28 29 30 31
410
FTUS43 KILX 300119 AAA
TAFDEC
TAF AMD
KDEC 300119Z 3001/3024 06011KT P6SM SCT030
     FM300500 09012KT P6SM OVC070
     FM301000 10014KT 4SM -RA OVC008
     FM301300 13015G24KT 2SM -RA BR VCTS OVC008CB
     FM302200 13012KT 5SM -SHRA VCTS BKN015CB=

USA.gov is the U.S. government's official web portal to all federal, state and local government web resources and services.